• Join FlightAware (Why Join?)
  • Login
  • US Flag 
01:06PM EDT


 

Airport Tracker/Info


-or-


 

Live Flight TrackerFlight Track Log ✈ RPA3161 ✈ 01-May-2013 ✈ KBTV - KDCA

Flight Track Log - Related Links

Times and Time Zones

All times are in EDT time to prevent confusion due to time zone crossing. See the RPA3161 flight status page for this flight to view local times or setup timezone preferences in your user account.

Time Position Orientation Groundspeed Altitude Reporting Facility
EDT Latitude Longitude Course Direction KTS MPH feet Rate Location/Type
01:06PM 44.1768 -73.2587 195° South  Level FlightAware Approximate
01:07PM 44.0796 -73.2952 195° South  Level FlightAware Approximate
01:07PM 44.3936 -73.2942 198° South 302 348 8,800  Level Boston Center
01:08PM 43.9843 -73.3275 194° South  Level FlightAware Approximate
01:08PM 44.2956 -73.3247 193° South 314 361 11,700  Level Boston Center
01:09PM 43.8891 -73.3604 195° South  Level FlightAware Approximate
01:09PM 44.2078 -73.3553 194° South 319 367 14,200  Level Boston Center
01:10PM 43.7944 -73.3960 195° South  Level FlightAware Approximate
01:10PM 44.1094 -73.3856 192° South 337 388 16,800  Level Boston Center
01:11PM 43.6998 -73.4314 195° South  Level FlightAware Approximate
01:11PM 44.0114 -73.4158 193° South 358 412 18,700  Level Boston Center
01:12PM 43.6058 -73.4701 198° South  Level FlightAware Approximate
01:12PM 43.9069 -73.4486 193° South 380 437 21,000  Level Boston Center
01:13PM 43.8086 -73.4786 192° South 398 458 22,900 1,800 Climbing Boston Center
01:14PM 43.6978 -73.5142 193° South 408 470 24,700 1,680 Climbing Boston Center
01:15PM 43.5872 -73.5464 192° South 408 470 26,300 1,560 Climbing Boston Center
01:16PM 43.4764 -73.5817 193° South 413 475 27,900 1,500 Climbing Boston Center
01:17PM 43.3736 -73.6483 205° Southwest 413 475 29,400 1,380 Climbing Boston Center
01:18PM 43.2703 -73.7517 216° Southwest 419 482 30,700 1,080 Climbing Boston Center
01:19PM 43.1608 -73.8292 207° Southwest 431 496 31,600 600 Climbing Boston Center
01:20PM 43.0422 -73.8236 178° South 425 489 32,000 180 Climbing Boston Center
01:21PM 42.9464 -73.8186 178° South 419 482 32,000  Level Boston Center
01:22PM 42.8047 -73.8097 177° South 424 488 32,000  Level Boston Center
01:23PM 42.6936 -73.8722 202° Southwest 416 479 32,000  Level Boston Center
01:24PM 42.6253 -73.9978 234° Southwest 391 450 32,000  Level Boston Center
01:25PM 42.5203 -74.0514 201° Southwest 401 461 32,000  Level Boston Center
01:26PM 42.4147 -74.0036 162° South 391 450 32,000  Level Boston Center
01:27PM 42.3006 -73.9614 165° South 398 458 32,000  Level Boston Center
01:28PM 42.1886 -73.9194 164° South 411 473 32,000  Level Boston Center
01:29PM 42.0744 -73.8778 165° South 416 479 32,000  Level Boston Center
01:30PM 41.9344 -73.9108 190° South 411 473 32,000  Level Boston Center
01:32PM 41.6769 -74.0206 198° South 441 507 32,000  Level New York Center
01:33PM 41.5697 -74.0653 197° South 441 507 32,000  Level New York Center
01:34PM 41.4517 -74.1175 198° South 433 498 32,000  Level New York Center
01:35PM 41.3397 -74.1700 199° South 433 498 32,000  Level New York Center
01:36PM 41.2217 -74.2164 196° South 433 498 32,000  Level New York Center
01:37PM 41.1058 -74.2628 197° South 433 498 32,000 -420 Level New York Center
01:38PM 40.9919 -74.3117 198° South 433 498 31,200 -1,320 Descending New York Center
01:39PM 40.8819 -74.3611 199° South 433 498 29,500 -1,620 Descending New York Center
01:40PM 40.7781 -74.4214 204° Southwest 422 486 28,000 -780 Descending New York Center
01:41PM 40.7100 -74.5325 231° Southwest 390 449 28,000  Level New York Center
01:42PM 40.6353 -74.6542 231° Southwest 390 449 28,000  Level New York Center
01:43PM 40.5669 -74.7653 231° Southwest 400 460 28,000 -240 Level New York Center
01:44PM 40.4925 -74.8700 227° Southwest 400 460 27,600 -720 Descending New York Center
01:45PM 40.4242 -74.9722 229° Southwest 390 449 26,600 -1,020 Descending New York Center
01:46PM 40.3822 -75.0950 246° West 379 436 25,600 -1,020 Descending New York Center
01:47PM 40.3464 -75.2181 249° West 368 423 24,600 -960 Descending New York Center
01:48PM 40.3125 -75.3411 250° West 368 423 23,700 -1,020 Descending New York Center
01:49PM 40.2767 -75.4583 248° West 363 418 22,700 -960 Descending New York Center
01:50PM 40.1833 -75.4983 198° South 327 376 21,800 -900 Descending New York Center
01:51PM 40.0897 -75.5489 202° Southwest 341 392 20,900 -960 Descending New York Center
01:52PM 40.0056 -75.6192 213° Southwest 357 411 20,000 -480 Descending New York Center
01:53PM 39.9369 -75.7172 228° Southwest 362 417 20,000  Level New York Center
01:54PM 39.8681 -75.8150 227° Southwest 362 417 20,000  Level New York Center
01:55PM 39.8056 -75.9133 230° Southwest 369 425 20,000 -60 Level New York Center
01:56PM 39.7386 -76.0111 228° Southwest 369 425 19,900 -960 Descending New York Center
01:57PM 39.6697 -76.1031 226° Southwest 369 425 18,200 -1,680 Descending New York Center
01:58PM 39.6183 -76.1800 229° Southwest 363 418 16,700 -1,860 Descending New York Center
02:00PM 39.5167 -76.3333 229° Southwest 319 367 13,500 -1,860 Descending Potomac TRACON
02:01PM 39.4500 -76.4167 224° Southwest 308 354 12,000 -720 Descending Potomac TRACON
02:02PM 39.3833 -76.4833 218° Southwest 301 346 12,000 -600 Level Potomac TRACON
02:03PM 39.3167 -76.5333 210° Southwest 301 346 10,800 -1,080 Descending Potomac TRACON
02:04PM 39.2500 -76.6000 218° Southwest 296 341 10,000 -420 Descending Potomac TRACON
02:05PM 39.1667 -76.6667 212° Southwest 294 338 10,000  Level Potomac TRACON
02:06PM 39.1167 -76.7333 226° Southwest 298 343 10,000 -420 Level Potomac TRACON
02:07PM 39.0500 -76.8000 218° Southwest 292 336 9,200 -1,260 Descending Potomac TRACON
02:08PM 39.0000 -76.8667 226° Southwest 285 328 7,500 -1,620 Descending Potomac TRACON
02:09PM 38.9333 -76.9333 218° Southwest 281 323 6,000 -1,200 Descending Potomac TRACON
02:10PM 38.8500 -76.9500 189° South 278 320 5,200 -960 Descending Potomac TRACON
02:11PM 38.7833 -76.9500 180° South 255 293 4,100 -900 Descending Potomac TRACON
02:12PM 38.7333 -76.9333 165° South 196 226 3,400 -840 Descending Potomac TRACON
02:13PM 38.6833 -76.9500 195° South 200 230 2,500 -480 Descending Potomac TRACON
02:14PM 38.6833 -77.0167 270° West 196 226 2,500 -120 Level Potomac TRACON
02:15PM 38.7333 -77.0333 345° North 169 194 2,300 -480 Descending Potomac TRACON
02:16PM 38.7667 -77.0333 360° North 150 173 1,600 -720 Descending Potomac TRACON